createdAt,value
2022-08-17T00:00:43.956Z,99.90
2022-08-17T00:04:01.142Z,99.90
2022-08-17T00:07:23.408Z,99.90
2022-08-17T00:10:47.179Z,99.90
2022-08-17T00:14:13.182Z,99.90
2022-08-17T00:17:35.608Z,99.90
2022-08-17T00:20:59.087Z,99.90
2022-08-17T00:24:21.404Z,99.90
2022-08-17T00:27:43.703Z,99.90
2022-08-17T00:31:08.537Z,99.90
2022-08-17T00:34:30.845Z,99.90
2022-08-17T00:37:54.507Z,99.90
2022-08-17T00:41:20.735Z,99.90
2022-08-17T00:44:43.017Z,99.90
2022-08-17T00:48:05.383Z,99.90
2022-08-17T00:52:10.717Z,99.90
2022-08-17T00:55:34.757Z,99.90
2022-08-17T00:58:57.872Z,99.90
2022-08-17T01:02:20.815Z,99.90
2022-08-17T01:05:43.217Z,99.90
2022-08-17T01:09:08.664Z,99.90
2022-08-17T01:12:31.638Z,99.90
2022-08-17T01:16:07.677Z,99.90
2022-08-17T01:19:35.817Z,99.90
2022-08-17T01:22:58.692Z,99.90
2022-08-17T01:26:21.922Z,99.90
2022-08-17T01:29:48.415Z,99.90
2022-08-17T01:33:11.525Z,99.90
2022-08-17T01:36:33.813Z,99.90
2022-08-17T01:40:25.535Z,99.90
2022-08-17T01:44:04.125Z,99.90
2022-08-17T01:47:26.436Z,99.90
2022-08-17T01:50:52.328Z,99.90
2022-08-17T01:54:17.354Z,99.90
2022-08-17T01:57:39.734Z,99.90
2022-08-17T02:01:03.389Z,99.90
2022-08-17T02:04:25.922Z,99.90
2022-08-17T02:08:00.619Z,99.90
2022-08-17T02:11:23.394Z,99.90
2022-08-17T02:14:46.162Z,99.90
2022-08-17T02:18:10.204Z,99.90
2022-08-17T02:21:32.523Z,99.90
2022-08-17T02:25:00.815Z,99.90
2022-08-17T02:28:24.154Z,99.90
2022-08-17T02:31:46.445Z,99.90
2022-08-17T02:35:09.802Z,99.90
2022-08-17T02:38:32.185Z,99.90
2022-08-17T02:42:01.670Z,99.90
2022-08-17T02:45:25.180Z,99.90
2022-08-17T02:48:47.410Z,99.90
2022-08-17T02:52:09.694Z,99.90
2022-08-17T02:55:37.658Z,99.90
2022-08-17T02:58:59.990Z,99.90
2022-08-17T03:02:22.258Z,99.90
2022-08-17T03:05:48.079Z,99.90
2022-08-17T03:09:10.304Z,99.90
2022-08-17T03:12:34.327Z,99.90
2022-08-17T03:15:56.653Z,99.90
2022-08-17T03:19:18.906Z,99.90
2022-08-17T03:22:53.348Z,99.90
2022-08-17T03:26:16.316Z,99.90
2022-08-17T03:29:39.755Z,99.90
2022-08-17T03:33:04.101Z,99.90
2022-08-17T03:36:26.406Z,99.90
2022-08-17T03:39:49.034Z,99.90
2022-08-17T03:43:11.355Z,99.90
2022-08-17T03:46:52.230Z,99.90
2022-08-17T03:50:34.385Z,99.90
2022-08-17T03:54:17.711Z,99.90
2022-08-17T03:57:40.568Z,99.90
2022-08-17T04:01:03.571Z,99.90
2022-08-17T04:04:27.410Z,99.90
2022-08-17T04:07:51.776Z,99.90
2022-08-17T04:11:14.069Z,99.90
2022-08-17T04:14:51.646Z,99.90
2022-08-17T04:18:17.213Z,99.90
2022-08-17T04:21:39.562Z,99.90
2022-08-17T04:25:09.621Z,99.90
2022-08-17T04:28:31.930Z,99.90
2022-08-17T04:31:54.270Z,99.90
2022-08-17T04:35:21.989Z,99.90
2022-08-17T04:38:46.236Z,99.90
2022-08-17T04:42:17.046Z,99.90
2022-08-17T04:45:55.556Z,99.90
2022-08-17T04:49:19.133Z,99.90
2022-08-17T04:52:47.709Z,99.90
2022-08-17T04:56:16.648Z,99.90
2022-08-17T04:59:39.399Z,99.90
2022-08-17T05:03:01.670Z,99.90
2022-08-17T05:06:26.829Z,99.90
2022-08-17T05:09:49.013Z,99.90
2022-08-17T05:13:20.617Z,99.90
2022-08-17T05:16:42.925Z,99.90
2022-08-17T05:20:05.972Z,99.90
2022-08-17T05:23:38.502Z,99.90
2022-08-17T05:27:05.075Z,99.90
2022-08-17T05:30:29.123Z,99.90
2022-08-17T05:33:51.479Z,99.90
2022-08-17T05:37:13.799Z,99.90
2022-08-17T05:40:37.063Z,99.30
2022-08-17T05:43:59.306Z,99.20
2022-08-17T05:47:23.074Z,99.10
2022-08-17T05:50:50.069Z,99.40
2022-08-17T05:54:39.391Z,99.10
2022-08-17T05:58:10.894Z,99.00
2022-08-17T06:01:47.553Z,99.00
2022-08-17T06:05:18.640Z,99.40
2022-08-17T06:08:53.411Z,99.50
2022-08-17T06:12:49.326Z,99.70
2022-08-17T06:16:33.410Z,99.10
2022-08-17T06:20:02.949Z,99.90
2022-08-17T06:23:39.014Z,99.90
2022-08-17T06:27:14.581Z,99.90
2022-08-17T06:30:59.428Z,99.90
2022-08-17T06:34:22.943Z,99.90
2022-08-17T06:37:51.419Z,99.90
2022-08-17T06:41:46.014Z,99.90
2022-08-17T06:45:13.695Z,99.90
2022-08-17T06:49:08.984Z,99.90
2022-08-17T06:52:47.211Z,99.90
2022-08-17T06:56:13.648Z,99.90
2022-08-17T06:59:56.366Z,99.90
2022-08-17T07:03:41.538Z,99.40
2022-08-17T07:07:27.521Z,99.30
2022-08-17T07:10:56.356Z,99.40
2022-08-17T07:14:37.522Z,99.80
2022-08-17T07:18:00.689Z,99.90
2022-08-17T07:21:38.540Z,99.90
2022-08-17T07:25:05.775Z,99.90
2022-08-17T07:28:29.093Z,99.90
2022-08-17T07:31:51.584Z,99.90
2022-08-17T07:35:44.182Z,99.90
2022-08-17T07:39:06.639Z,99.90
2022-08-17T07:42:28.910Z,99.90
2022-08-17T07:46:34.361Z,99.00
2022-08-17T07:49:56.627Z,99.60
2022-08-17T07:53:25.798Z,99.10
2022-08-17T07:56:57.122Z,98.70
2022-08-17T08:00:32.480Z,98.70
2022-08-17T08:03:55.190Z,98.80
2022-08-17T08:07:17.911Z,98.50
2022-08-17T08:10:45.420Z,98.10
2022-08-17T08:14:34.020Z,98.00
2022-08-17T08:18:06.062Z,97.80
2022-08-17T08:21:55.218Z,97.60
2022-08-17T08:25:29.683Z,96.90
2022-08-17T08:28:51.910Z,97.20
2022-08-17T08:32:37.259Z,97.10
2022-08-17T08:37:15.891Z,96.90
2022-08-17T08:40:27.773Z,97.00
2022-08-17T08:44:12.870Z,96.50
2022-08-17T08:48:46.231Z,96.80
2022-08-17T08:52:00.947Z,96.80
2022-08-17T08:56:03.678Z,97.00
2022-08-17T08:59:44.567Z,96.70
2022-08-17T09:03:43.822Z,96.70
2022-08-17T09:07:26.820Z,97.80
2022-08-17T09:10:59.770Z,98.70
2022-08-17T09:14:31.278Z,99.30
2022-08-17T09:19:01.090Z,99.80
2022-08-17T09:22:07.614Z,99.90
2022-08-17T09:25:33.826Z,99.90
2022-08-17T09:29:03.171Z,99.90
2022-08-17T09:32:38.254Z,99.90
2022-08-17T09:36:04.402Z,99.90
2022-08-17T09:39:34.764Z,99.90
2022-08-17T09:43:15.421Z,99.90
2022-08-17T09:46:55.839Z,99.90
2022-08-17T09:50:55.516Z,99.90
2022-08-17T09:54:39.189Z,99.90
2022-08-17T09:58:56.454Z,99.90
2022-08-17T10:02:21.519Z,99.90
2022-08-17T10:06:01.992Z,99.90
2022-08-17T10:10:14.214Z,99.90
2022-08-17T10:13:53.399Z,99.90
2022-08-17T10:17:20.917Z,99.90
2022-08-17T10:21:19.949Z,99.90
2022-08-17T10:25:23.153Z,99.90
2022-08-17T10:28:53.154Z,99.90
2022-08-17T10:32:24.321Z,99.90
2022-08-17T10:36:01.319Z,99.90
2022-08-17T10:39:52.123Z,99.90
2022-08-17T10:43:35.398Z,99.90
2022-08-17T10:47:06.856Z,99.90
2022-08-17T10:50:58.215Z,99.90
2022-08-17T10:54:41.034Z,99.90
2022-08-17T10:58:22.060Z,99.90
2022-08-17T11:02:04.349Z,99.90
2022-08-17T11:05:45.174Z,99.90
2022-08-17T11:09:26.271Z,99.90
2022-08-17T11:13:19.371Z,99.90
2022-08-17T11:16:53.766Z,99.90
2022-08-17T11:20:01.892Z,99.90
2022-08-17T11:23:48.461Z,99.90
2022-08-17T11:27:19.936Z,99.90
2022-08-17T11:30:49.348Z,99.90
2022-08-17T11:34:26.485Z,99.90
2022-08-17T11:37:48.844Z,99.90
2022-08-17T11:41:27.364Z,99.90
2022-08-17T11:45:31.714Z,99.90
2022-08-17T11:49:34.466Z,99.80
2022-08-17T11:52:56.739Z,99.80
2022-08-17T11:56:33.862Z,99.20
2022-08-17T12:00:03.455Z,98.90
2022-08-17T12:03:53.830Z,98.90
2022-08-17T12:07:22.537Z,98.70
2022-08-17T12:11:01.541Z,98.60
2022-08-17T12:15:06.004Z,98.80
2022-08-17T12:18:28.050Z,99.10
2022-08-17T12:22:07.746Z,98.30
2022-08-17T12:25:39.052Z,97.70
2022-08-17T12:29:05.150Z,96.60
2022-08-17T12:32:33.236Z,96.40
2022-08-17T12:36:03.106Z,96.10
2022-08-17T12:39:28.074Z,94.80
2022-08-17T12:43:00.857Z,94.10
2022-08-17T12:46:23.291Z,94.70
2022-08-17T12:49:53.655Z,94.60
2022-08-17T12:53:29.935Z,94.70
2022-08-17T12:56:53.713Z,95.10
2022-08-17T13:00:31.658Z,94.90
2022-08-17T13:03:57.192Z,94.10
2022-08-17T13:07:32.523Z,94.40
2022-08-17T13:10:57.846Z,94.30
2022-08-17T13:14:20.291Z,94.60
2022-08-17T13:17:43.060Z,95.00
2022-08-17T13:21:11.310Z,94.70
2022-08-17T13:24:38.569Z,94.40
2022-08-17T13:28:01.071Z,94.30
2022-08-17T13:31:28.412Z,94.30
2022-08-17T13:35:13.016Z,94.50
2022-08-17T13:38:45.716Z,94.70
2022-08-17T13:42:50.204Z,94.70
2022-08-17T13:46:26.559Z,94.80
2022-08-17T13:49:49.617Z,94.50
2022-08-17T13:53:33.111Z,94.40
2022-08-17T13:57:07.101Z,94.50
2022-08-17T14:00:32.330Z,94.00
2022-08-17T14:03:55.315Z,93.40
2022-08-17T14:07:19.307Z,93.60
2022-08-17T14:10:42.323Z,93.30
2022-08-17T14:14:04.691Z,92.70
2022-08-17T14:17:29.025Z,92.30
2022-08-17T14:20:53.158Z,92.20
2022-08-17T14:24:25.745Z,92.30
2022-08-17T14:27:52.751Z,91.70
2022-08-17T14:31:16.219Z,91.90
2022-08-17T14:34:38.516Z,91.70
2022-08-17T14:38:02.247Z,91.00
2022-08-17T14:41:25.466Z,88.90
2022-08-17T14:44:47.776Z,87.90
2022-08-17T14:48:10.583Z,88.40
2022-08-17T14:51:32.990Z,88.40
2022-08-17T14:54:55.536Z,88.10
2022-08-17T14:58:19.355Z,87.90
2022-08-17T15:01:41.658Z,90.20
2022-08-17T15:05:05.874Z,90.50
2022-08-17T15:08:28.509Z,90.20
2022-08-17T15:11:51.195Z,90.30
2022-08-17T15:15:16.641Z,90.10
2022-08-17T15:18:41.306Z,90.30
2022-08-17T15:22:03.666Z,89.60
2022-08-17T15:25:28.735Z,89.50
2022-08-17T15:28:54.277Z,90.00
2022-08-17T15:32:27.190Z,90.20
2022-08-17T15:35:51.560Z,90.40
2022-08-17T15:39:13.841Z,90.80
2022-08-17T15:42:41.497Z,91.10
2022-08-17T15:46:12.011Z,91.30
2022-08-17T15:49:34.249Z,91.50
2022-08-17T15:52:59.126Z,91.60
2022-08-17T15:56:21.729Z,91.80
2022-08-17T15:59:44.539Z,91.70
2022-08-17T16:03:44.715Z,91.70
2022-08-17T16:06:50.373Z,91.40
2022-08-17T16:10:16.746Z,91.90
2022-08-17T16:13:47.402Z,91.90
2022-08-17T16:17:40.231Z,92.20
2022-08-17T16:21:22.546Z,92.40
2022-08-17T16:24:57.093Z,92.70
2022-08-17T16:28:20.191Z,91.80
2022-08-17T16:31:43.234Z,91.30
2022-08-17T16:35:10.752Z,90.60
2022-08-17T16:38:35.793Z,92.40
2022-08-17T16:41:58.021Z,93.40
2022-08-17T16:45:23.487Z,94.10
2022-08-17T16:48:46.379Z,95.80
2022-08-17T16:52:10.722Z,96.20
2022-08-17T16:55:35.769Z,95.70
2022-08-17T16:58:58.470Z,95.70
2022-08-17T17:02:34.535Z,95.30
2022-08-17T17:06:07.322Z,96.20
2022-08-17T17:09:37.409Z,96.90
2022-08-17T17:13:03.015Z,97.30
2022-08-17T17:16:45.668Z,99.00
2022-08-17T17:20:10.547Z,99.90
2022-08-17T17:23:38.974Z,99.90
2022-08-17T17:27:21.868Z,99.90
2022-08-17T17:30:55.218Z,99.90
2022-08-17T17:34:18.438Z,99.90
2022-08-17T17:37:43.962Z,99.90
2022-08-17T17:41:13.079Z,99.90
2022-08-17T17:44:40.804Z,99.90
2022-08-17T17:48:03.559Z,99.90
2022-08-17T17:52:06.835Z,99.40
2022-08-17T17:56:34.958Z,99.90
2022-08-17T18:00:18.607Z,99.90
2022-08-17T18:04:11.200Z,99.90
2022-08-17T18:07:54.401Z,99.90
2022-08-17T18:11:37.058Z,98.70
2022-08-17T18:15:11.486Z,98.50
2022-08-17T18:18:39.888Z,95.60
2022-08-17T18:22:15.753Z,94.00
2022-08-17T18:25:53.069Z,94.70
2022-08-17T18:29:24.453Z,94.70
2022-08-17T18:32:47.046Z,95.50
2022-08-17T18:36:11.477Z,95.70
2022-08-17T18:39:35.268Z,95.90
2022-08-17T18:43:43.987Z,97.00
2022-08-17T18:47:19.318Z,96.60
2022-08-17T18:50:41.942Z,96.40
2022-08-17T18:54:19.376Z,96.80
2022-08-17T18:57:58.842Z,97.60
2022-08-17T19:01:21.729Z,98.30
2022-08-17T19:05:25.432Z,99.60
2022-08-17T19:08:47.774Z,99.90
2022-08-17T19:12:27.023Z,99.90
2022-08-17T19:16:13.826Z,99.90
2022-08-17T19:20:20.647Z,99.90
2022-08-17T19:24:00.637Z,99.90
2022-08-17T19:27:41.813Z,99.90
2022-08-17T19:31:14.009Z,99.90
2022-08-17T19:34:37.980Z,99.90
2022-08-17T19:38:12.932Z,99.90
2022-08-17T19:42:01.494Z,99.90
2022-08-17T19:45:47.974Z,99.90
2022-08-17T19:49:22.714Z,99.90
2022-08-17T19:53:19.475Z,99.90
2022-08-17T19:57:08.272Z,99.90
2022-08-17T20:00:19.626Z,99.90
2022-08-17T20:03:35.285Z,99.90
2022-08-17T20:06:42.077Z,99.90
2022-08-17T20:09:54.404Z,99.90
2022-08-17T20:13:04.199Z,99.90
2022-08-17T20:16:07.308Z,99.90
2022-08-17T20:19:43.097Z,99.70
2022-08-17T20:23:03.709Z,99.90
2022-08-17T20:26:20.941Z,99.90
2022-08-17T20:29:40.204Z,99.90
2022-08-17T20:32:48.783Z,99.90
2022-08-17T20:36:22.624Z,99.90
2022-08-17T20:39:44.378Z,99.90
2022-08-17T20:42:47.077Z,99.70
2022-08-17T20:46:13.407Z,99.90
2022-08-17T20:49:27.039Z,99.90
2022-08-17T20:52:46.165Z,99.90
2022-08-17T20:55:52.000Z,99.90
2022-08-17T20:58:55.520Z,99.90
2022-08-17T21:02:21.109Z,99.90
2022-08-17T21:05:59.836Z,99.90
2022-08-17T21:09:29.935Z,99.90
2022-08-17T21:13:13.951Z,99.90
2022-08-17T21:16:39.588Z,99.90
2022-08-17T21:20:48.384Z,99.90
2022-08-17T21:24:21.292Z,99.90
2022-08-17T21:28:20.668Z,99.80
2022-08-17T21:32:03.803Z,99.90
2022-08-17T21:35:47.131Z,99.90
2022-08-17T21:39:13.212Z,99.90
2022-08-17T21:42:38.305Z,99.80
2022-08-17T21:46:02.301Z,99.90
2022-08-17T21:49:28.690Z,99.90
2022-08-17T21:52:55.930Z,99.90
2022-08-17T21:56:39.414Z,99.90
2022-08-17T22:00:15.225Z,99.90
2022-08-17T22:03:38.625Z,99.90
2022-08-17T22:07:04.576Z,99.90
2022-08-17T22:10:49.016Z,99.90
2022-08-17T22:14:22.765Z,99.70
2022-08-17T22:17:48.216Z,99.60
2022-08-17T22:21:10.554Z,99.50
2022-08-17T22:24:32.992Z,99.60
2022-08-17T22:27:57.029Z,99.70
2022-08-17T22:31:24.206Z,99.50
2022-08-17T22:34:46.540Z,99.60
2022-08-17T22:38:21.182Z,99.60
2022-08-17T22:41:43.458Z,99.70
2022-08-17T22:45:08.330Z,99.90
2022-08-17T22:48:31.285Z,99.90
2022-08-17T22:52:14.800Z,99.90
2022-08-17T22:55:55.516Z,99.90
2022-08-17T22:59:35.711Z,99.70
2022-08-17T23:03:13.198Z,99.50
2022-08-17T23:06:37.585Z,99.50
2022-08-17T23:10:02.165Z,99.90
2022-08-17T23:13:24.451Z,99.90
2022-08-17T23:16:50.912Z,99.90
2022-08-17T23:20:15.051Z,99.90
2022-08-17T23:23:37.402Z,99.90
2022-08-17T23:26:59.700Z,99.90
2022-08-17T23:30:25.393Z,99.80
2022-08-17T23:33:47.844Z,99.70
2022-08-17T23:37:11.759Z,99.50
2022-08-17T23:40:34.522Z,99.60
2022-08-17T23:43:56.859Z,99.70
2022-08-17T23:47:19.373Z,99.70
2022-08-17T23:50:41.631Z,99.90
2022-08-17T23:54:12.627Z,99.90
2022-08-17T23:57:36.144Z,99.90
